UTAK

Turkmenbashi

Krasnovodsk,
TAF UTAK 221030Z 2212/2312 16016KT 9999 SCT023 BKN100 530009 TEMPO 2216/2219 24016KT 6000 SCT006 BKN023 TEMPO 2219/2223 26014KT 3000 BR BKN006 TEMPO 2223/2303 VRB04KT 0700 FG VV002 TEMPO 2303/2306 12016KT 4000 -RA BR BKN004 SCT022CB OVC100
Issued Valid From Valid To
Jan-22 @ 10:30 UTC
(6 hours ago)
Jan-22 @ 12:00 UTC
(5 hours ago)
Jan-23 @ 12:00 UTC
(in 19 hours)
Jan-22 @ 12:00 to Jan-23 @ 12:00
TAF UTAK 221030Z 2212/2312 16016KT 9999 SCT023 BKN100 530009
Wind Visibility Clouds Turbulence
160° at 16 knots 10,000+ meters
  • Scattered at 2,300' AGL
  • Broken at 10,000' AGL
Frequent moderate clear air turbulence expected at the surface extending to 9,000' AGL
Temporary Jan-22 @ 16:00 to Jan-22 @ 19:00
TEMPO 2216/2219 24016KT 6000 SCT006 BKN023
Wind Visibility Clouds
240° at 16 knots 6,003 meters
  • Scattered at 600' AGL
  • Broken at 2,300' AGL
Temporary Jan-22 @ 19:00 to Jan-22 @ 23:00
TEMPO 2219/2223 26014KT 3000 BR BKN006
Wind Visibility Clouds Conditions
260° at 14 knots 2,993 meters
  • Broken at 600' AGL
  • Mist
Temporary Jan-22 @ 23:00 to Jan-23 @ 03:00
TEMPO 2223/2303 VRB04KT 0700 FG VV002
Wind Visibility Clouds Conditions
Variable at 4 knots 692 meters
  • Vertical visibility at 200' AGL
  • Fog
Temporary Jan-23 @ 03:00 to Jan-23 @ 06:00
TEMPO 2303/2306 12016KT 4000 -RA BR BKN004 SCT022CB OVC100
Wind Visibility Clouds Conditions
120° at 16 knots 4,007 meters
  • Broken at 400' AGL
  • Scattered at 2,200' AGL
  • Overcast at 10,000' AGL
  • Light Rain
  • Mist
TAF UTAK 221030Z 2212/2312 16016KT 9999 SCT023 BKN100 530009 TEMPO 2216/2219 24016KT 6000 SCT006 BKN023 TEMPO 2219/2223 26014KT 3000 BR BKN006 TEMPO 2223/2303 VRB04KT 0700 FG VV002 TEMPO 2303/2306 12016KT 4000 -RA BR BKN004 SCT022CB OVC100
Issued Jan-22 @ 10:30 UTC
(6 hours ago)
Valid From Jan-22 @ 12:00 UTC
(5 hours ago)
Valid To Jan-23 @ 12:00 UTC
(in 19 hours)
Jan-22 @ 12:00 - Jan-23 @ 12:00
Wind Visibility
160° at 16 knots 10,000+ meters
Clouds
  • Scattered at 2,300' AGL
  • Broken at 10,000' AGL
Temporary Jan-22 @ 16:00 - Jan-22 @ 19:00
Wind Visibility
240° at 16 knots 6,003 meters
Clouds
  • Scattered at 600' AGL
  • Broken at 2,300' AGL
Temporary Jan-22 @ 19:00 - Jan-22 @ 23:00
Wind Visibility
260° at 14 knots 2,993 meters
Clouds
  • Broken at 600' AGL
Conditions
  • Mist
Temporary Jan-22 @ 23:00 - Jan-23 @ 03:00
Wind Visibility
Variable at 4 knots 692 meters
Clouds
  • Vertical visibility at 200' AGL
Conditions
  • Fog
Temporary Jan-23 @ 03:00 - Jan-23 @ 06:00
Wind Visibility
120° at 16 knots 4,007 meters
Clouds
  • Broken at 400' AGL
  • Scattered at 2,200' AGL
  • Overcast at 10,000' AGL
Conditions
  • Light Rain
  • Mist